Estación Meteorológica Peña el Pijo (Robertgarden) [ 02/03/23 03:23:59 CET ]

Fecha Hora Presion(HPa) Temp (°C) Humedad % Rocio (°C) Viento ( m/s) Direccion Lluvia 1Hora(mm) Lluvia 24H(mm) LLuvia Total(mm)
2012-Jan-28 01:01:12 1011.000 3.6 92 2.4       2.07 153.32
2012-Jan-28 02:01:47 1011.100 3.6 92 2.4       2.07 153.32
2012-Jan-28 03:01:48 1011.300 3.4 92 2.2       2.07 153.32
2012-Jan-28 04:05:16 1011.400 3.4 92 2.2       2.07 153.32
2012-Jan-28 05:01:15 1011.400 3.2 92 2.0       2.07 153.32
2012-Jan-28 06:01:14 1011.500 3.0 92 1.8       2.07 153.32
2012-Jan-28 07:01:16 1011.800 3.1 92 1.9       2.07 153.32
2012-Jan-28 08:01:16 1012.300 3.0 93 1.9       2.07 153.32
2012-Jan-28 09:01:13 1012.800 3.0 93 1.9       2.07 153.32
2012-Jan-28 10:01:11 1012.900 3.2 93 2.1       2.07 153.32
2012-Jan-28 11:01:13 1013.400 3.9 92 2.7       2.07 153.32
2012-Jan-28 12:01:17 1013.900 4.1 91 2.8       2.07 153.32
2012-Jan-28 13:01:17 1013.600 4.1 90 2.6       2.07 153.32
2012-Jan-28 14:01:13 1012.900 4.4 89 2.7       2.07 153.32
2012-Jan-28 15:01:17 1012.500 5.1 88 3.3         153.32
2012-Jan-28 16:01:14 1012.300 5.5 86 3.3         153.32
2012-Jan-28 17:01:13 1012.000 5.6 84 3.1         153.32
2012-Jan-28 18:01:13 1012.100 5.0 85 2.6         153.32
2012-Jan-28 19:01:17 1012.300 4.2 88 2.4         153.32
2012-Jan-28 20:01:15 1012.800 3.0 89 1.3         153.32
2012-Jan-28 21:01:17 1013.200 1.9 90 0.4         153.32
2012-Jan-28 22:01:11 1013.400 0.8 90 -0.7         153.32
2012-Jan-28 23:01:17 1013.000 -0.2 90 -1.6         153.32

Temperatura Máxima:    Temperatura Mínima:
Presión Máxima:1013.900 Hpa    Presión Mínima:1011.000 Hpa


Volver